Time;durP1;ratioP1;P1;durP2;ratioP2;P2;SDS_P1;SDS_P2;PMS_P1;PMS_P2;Temp;Humidity;BMP_temperature;BMP_pressure;BME280_temperature;BME280_humidity;BME280_pressure;Samples;Min_cycle;Max_cycle;Signal;HPM_P1;HPM_P2
2022/09/06 00:01:37;;;;;;;15.07;10.38;;;;;;;;;;4971961;28;20022;-65
2022/09/06 00:04:03;;;;;;;15.48;11.07;;;;;;;;;;4971422;28;20034;-65
2022/09/06 00:06:29;;;;;;;19.17;11.82;;;;;;;;;;4973263;28;20046;-65
2022/09/06 00:08:55;;;;;;;15.00;10.65;;;;;;;;;;4971917;28;20053;-65
2022/09/06 00:11:21;;;;;;;14.27;10.10;;;;;;;;;;4972025;28;20031;-65
2022/09/06 00:13:47;;;;;;;12.90;9.05;;;;;;;;;;4978145;28;20459;-67
2022/09/06 00:16:19;;;;;;;13.15;9.75;;;;;;;;;;4971927;28;20062;-65
2022/09/06 00:18:45;;;;;;;14.02;9.90;;;;;;;;;;4972021;28;20074;-64
2022/09/06 00:21:18;;;;;;;12.52;10.15;;;;;;;;;;4972089;28;20047;-72
2022/09/06 00:23:44;;;;;;;12.90;9.63;;;;;;;;;;4972202;28;20034;-67
2022/09/06 00:26:10;;;;;;;19.75;10.27;;;;;;;;;;4972720;28;20398;-64
2022/09/06 00:28:36;;;;;;;11.18;9.13;;;;;;;;;;4972179;28;20039;-63
2022/09/06 00:31:22;;;;;;;11.98;9.50;;;;;;;;;;4972082;28;20494;-64
2022/09/06 00:33:48;;;;;;;14.98;10.57;;;;;;;;;;4972174;28;20039;-63
2022/09/06 00:36:14;;;;;;;12.32;9.40;;;;;;;;;;4971925;28;20030;-64
2022/09/06 00:38:41;;;;;;;13.93;10.00;;;;;;;;;;4971946;28;20482;-63
2022/09/06 00:41:09;;;;;;;12.95;8.80;;;;;;;;;;4976213;28;20026;-63
2022/09/06 00:43:36;;;;;;;11.55;9.00;;;;;;;;;;4971556;28;20027;-65
2022/09/06 00:46:03;;;;;;;11.93;9.32;;;;;;;;;;4972125;28;20023;-63
2022/09/06 00:48:30;;;;;;;10.80;9.02;;;;;;;;;;4972252;28;20041;-64
2022/09/06 00:50:59;;;;;;;13.85;9.55;;;;;;;;;;4958686;28;20039;-64
2022/09/06 00:53:26;;;;;;;14.65;9.50;;;;;;;;;;4977174;28;20030;-64
2022/09/06 00:55:53;;;;;;;11.80;8.90;;;;;;;;;;4971680;28;20097;-64
2022/09/06 00:58:20;;;;;;;11.10;8.85;;;;;;;;;;4972246;28;20033;-65
2022/09/06 01:00:46;;;;;;;11.05;8.38;;;;;;;;;;4975549;28;20089;-63
2022/09/06 01:03:12;;;;;;;11.52;8.70;;;;;;;;;;4975148;28;20031;-64
2022/09/06 01:06:16;;;;;;;13.68;8.25;;;;;;;;;;4975362;28;20102;-64
2022/09/06 01:08:54;;;;;;;11.82;8.35;;;;;;;;;;4976765;28;20494;-64
2022/09/06 01:11:25;;;;;;;10.73;9.05;;;;;;;;;;4974926;28;20051;-64
2022/09/06 01:13:54;;;;;;;12.45;9.93;;;;;;;;;;4972926;28;20031;-63
2022/09/06 01:16:40;;;;;;;14.32;9.73;;;;;;;;;;4976854;28;20109;-65
2022/09/06 01:19:21;;;;;;;12.43;9.13;;;;;;;;;;4974919;28;20512;-63
2022/09/06 01:22:19;;;;;;;13.80;9.50;;;;;;;;;;4975027;28;20042;-64
2022/09/06 01:25:17;;;;;;;10.40;9.18;;;;;;;;;;4962989;28;20042;-64
2022/09/06 01:28:11;;;;;;;11.77;9.07;;;;;;;;;;4973319;28;20043;-64
2022/09/06 01:30:44;;;;;;;12.68;9.45;;;;;;;;;;4969799;28;20070;-66
2022/09/06 01:33:23;;;;;;;11.48;8.98;;;;;;;;;;4974787;28;20117;-65
2022/09/06 01:35:58;;;;;;;11.75;8.65;;;;;;;;;;4974697;28;20059;-63
2022/09/06 01:38:24;;;;;;;11.23;8.43;;;;;;;;;;4973830;28;20034;-63
2022/09/06 01:40:50;;;;;;;13.15;9.68;;;;;;;;;;4974941;28;20022;-64
2022/09/06 01:43:25;;;;;;;11.35;9.60;;;;;;;;;;4974677;28;20039;-64
2022/09/06 01:46:09;;;;;;;13.15;9.10;;;;;;;;;;4974035;28;20106;-64
2022/09/06 01:48:55;;;;;;;12.82;8.63;;;;;;;;;;4973653;28;20041;-64
2022/09/06 01:51:36;;;;;;;11.35;8.43;;;;;;;;;;4963351;28;20149;-65
2022/09/06 01:54:36;;;;;;;11.90;8.52;;;;;;;;;;4972398;28;20030;-64
2022/09/06 01:57:07;;;;;;;11.60;8.85;;;;;;;;;;4973317;28;20034;-65
2022/09/06 01:59:54;;;;;;;11.55;8.23;;;;;;;;;;4974964;28;20474;-63
2022/09/06 02:02:26;;;;;;;12.15;9.10;;;;;;;;;;4973537;28;20034;-64
2022/09/06 02:05:06;;;;;;;14.18;9.50;;;;;;;;;;4974452;28;20560;-65
2022/09/06 02:07:34;;;;;;;11.25;9.10;;;;;;;;;;4970548;28;20121;-63
2022/09/06 02:10:27;;;;;;;12.95;10.40;;;;;;;;;;4972423;28;20363;-63
2022/09/06 02:12:58;;;;;;;15.05;9.65;;;;;;;;;;4967644;28;20525;-64
2022/09/06 02:15:38;;;;;;;13.48;9.88;;;;;;;;;;4970804;28;20082;-64
2022/09/06 02:18:10;;;;;;;14.38;10.93;;;;;;;;;;4974792;28;20402;-63
2022/09/06 02:20:41;;;;;;;15.57;10.85;;;;;;;;;;4974955;28;20034;-64
2022/09/06 02:23:09;;;;;;;14.00;9.98;;;;;;;;;;4973654;28;20097;-63
2022/09/06 02:25:40;;;;;;;12.85;9.75;;;;;;;;;;4975355;28;20106;-65
2022/09/06 02:28:07;;;;;;;15.88;10.52;;;;;;;;;;4975239;28;20039;-64
2022/09/06 02:30:40;;;;;;;15.00;11.07;;;;;;;;;;4975087;28;20489;-64
2022/09/06 02:33:11;;;;;;;14.73;10.82;;;;;;;;;;4975373;28;20038;-63
2022/09/06 02:35:50;;;;;;;15.70;9.80;;;;;;;;;;4975006;28;20114;-64
2022/09/06 02:38:17;;;;;;;15.85;10.73;;;;;;;;;;4974993;28;20034;-66
2022/09/06 02:40:44;;;;;;;12.98;10.23;;;;;;;;;;4974797;28;20500;-64
2022/09/06 02:43:10;;;;;;;15.20;11.98;;;;;;;;;;4974634;28;20126;-65
2022/09/06 02:45:36;;;;;;;12.50;8.85;;;;;;;;;;4974784;28;20456;-65
2022/09/06 02:48:02;;;;;;;15.98;9.57;;;;;;;;;;4974846;28;20482;-65
2022/09/06 02:50:28;;;;;;;9.38;7.88;;;;;;;;;;4974975;28;20030;-66
2022/09/06 02:53:09;;;;;;;11.05;8.45;;;;;;;;;;4974960;28;20030;-62
2022/09/06 02:55:35;;;;;;;12.80;8.35;;;;;;;;;;4974989;28;20426;-68
2022/09/06 02:58:02;;;;;;;11.27;8.70;;;;;;;;;;4974744;28;20024;-64
2022/09/06 03:00:28;;;;;;;12.68;8.63;;;;;;;;;;4974573;28;20041;-63
2022/09/06 03:02:55;;;;;;;12.00;7.88;;;;;;;;;;4974341;28;20022;-64
2022/09/06 03:05:23;;;;;;;10.85;8.35;;;;;;;;;;4974307;28;20094;-64
2022/09/06 03:07:49;;;;;;;11.70;8.40;;;;;;;;;;4974166;28;20474;-64
2022/09/06 03:10:15;;;;;;;9.27;8.13;;;;;;;;;;4974304;28;20031;-63
2022/09/06 03:12:42;;;;;;;12.88;9.30;;;;;;;;;;4974231;28;20030;-63
2022/09/06 03:15:09;;;;;;;11.73;9.13;;;;;;;;;;4973724;28;20043;-64
2022/09/06 03:17:34;;;;;;;12.57;10.00;;;;;;;;;;4973902;28;20105;-64
2022/09/06 03:20:00;;;;;;;11.70;8.35;;;;;;;;;;4973885;28;20069;-64
2022/09/06 03:22:26;;;;;;;10.15;7.25;;;;;;;;;;4974029;28;20023;-64
2022/09/06 03:24:52;;;;;;;12.10;8.63;;;;;;;;;;4974023;28;20041;-65
2022/09/06 03:27:18;;;;;;;11.68;8.23;;;;;;;;;;4973785;28;20417;-64
2022/09/06 03:29:44;;;;;;;14.10;8.82;;;;;;;;;;4974018;28;20038;-64
2022/09/06 03:32:09;;;;;;;13.25;9.32;;;;;;;;;;4974451;28;20023;-64
2022/09/06 03:34:35;;;;;;;12.52;8.60;;;;;;;;;;4974292;28;20035;-66
2022/09/06 03:37:01;;;;;;;16.67;9.20;;;;;;;;;;4973874;28;20027;-63
2022/09/06 03:39:27;;;;;;;17.20;9.15;;;;;;;;;;4973723;28;20042;-66
2022/09/06 03:41:53;;;;;;;14.48;10.07;;;;;;;;;;4973967;28;20026;-65
2022/09/06 03:44:19;;;;;;;15.00;9.45;;;;;;;;;;4974056;28;20031;-64
2022/09/06 03:46:45;;;;;;;17.95;9.65;;;;;;;;;;4974211;28;20034;-66
2022/09/06 03:49:10;;;;;;;14.05;9.65;;;;;;;;;;4973582;28;20075;-64
2022/09/06 03:51:36;;;;;;;21.58;9.75;;;;;;;;;;4974044;28;20029;-64
2022/09/06 03:54:02;;;;;;;24.35;11.50;;;;;;;;;;4973820;28;20045;-65
2022/09/06 03:56:28;;;;;;;19.20;9.93;;;;;;;;;;4973620;28;20023;-66
2022/09/06 03:58:54;;;;;;;15.85;10.20;;;;;;;;;;4973066;28;20089;-64
2022/09/06 04:01:20;;;;;;;17.75;11.10;;;;;;;;;;4973495;28;20019;-64
2022/09/06 04:03:46;;;;;;;19.95;11.82;;;;;;;;;;4973360;28;20109;-67
2022/09/06 04:06:11;;;;;;;14.35;10.98;;;;;;;;;;4973482;28;20027;-66
2022/09/06 04:08:38;;;;;;;18.13;11.18;;;;;;;;;;4973424;28;20038;-66
2022/09/06 04:11:04;;;;;;;19.10;11.13;;;;;;;;;;4988002;28;20026;-66
2022/09/06 04:13:32;;;;;;;21.17;10.35;;;;;;;;;;4992656;28;20065;-68
2022/09/06 04:15:58;;;;;;;15.48;11.23;;;;;;;;;;4984755;28;20031;-67
2022/09/06 04:18:24;;;;;;;21.55;12.25;;;;;;;;;;4973152;28;20103;-68
2022/09/06 04:20:52;;;;;;;23.90;11.48;;;;;;;;;;4973129;28;20031;-64
2022/09/06 04:23:19;;;;;;;15.73;11.18;;;;;;;;;;4973285;28;20093;-65
2022/09/06 04:25:46;;;;;;;21.13;11.93;;;;;;;;;;4975248;28;20027;-64
2022/09/06 04:28:12;;;;;;;16.50;10.93;;;;;;;;;;4977036;28;20054;-64
2022/09/06 04:30:38;;;;;;;21.88;12.18;;;;;;;;;;4976275;28;20528;-65
2022/09/06 04:33:04;;;;;;;23.95;12.57;;;;;;;;;;4971698;28;20031;-64
2022/09/06 04:35:30;;;;;;;22.65;13.18;;;;;;;;;;4976684;28;20065;-64
2022/09/06 04:37:59;;;;;;;20.27;12.52;;;;;;;;;;4976579;28;20703;-64
2022/09/06 04:40:26;;;;;;;30.73;13.88;;;;;;;;;;4974660;28;20372;-63
2022/09/06 04:42:52;;;;;;;21.52;11.25;;;;;;;;;;4959789;28;20489;-71
2022/09/06 04:45:17;;;;;;;39.25;14.35;;;;;;;;;;4976712;28;20054;-72
2022/09/06 04:47:43;;;;;;;21.98;11.15;;;;;;;;;;4976440;28;20065;-70
2022/09/06 04:50:09;;;;;;;23.20;12.15;;;;;;;;;;4959213;28;20096;-71
2022/09/06 04:52:37;;;;;;;17.63;11.43;;;;;;;;;;4976585;28;20039;-71
2022/09/06 04:55:04;;;;;;;31.05;11.57;;;;;;;;;;4976937;28;20015;-71
2022/09/06 04:57:30;;;;;;;13.43;10.32;;;;;;;;;;4976812;28;20042;-70
2022/09/06 04:59:55;;;;;;;14.02;10.38;;;;;;;;;;4976767;28;20536;-71
2022/09/06 05:02:21;;;;;;;17.77;10.00;;;;;;;;;;4976382;28;20069;-69
2022/09/06 05:04:47;;;;;;;17.33;10.27;;;;;;;;;;4976492;28;20138;-70
2022/09/06 05:07:13;;;;;;;18.17;11.40;;;;;;;;;;4975529;28;20078;-70
2022/09/06 05:09:39;;;;;;;15.25;10.68;;;;;;;;;;4956007;28;20031;-70
2022/09/06 05:12:05;;;;;;;18.77;11.00;;;;;;;;;;4974752;28;20035;-71
2022/09/06 05:14:31;;;;;;;18.90;11.13;;;;;;;;;;4975496;28;20042;-70
2022/09/06 05:16:57;;;;;;;17.30;10.93;;;;;;;;;;4972859;28;20035;-70
2022/09/06 05:19:23;;;;;;;16.13;11.57;;;;;;;;;;4973094;28;20425;-70
2022/09/06 05:21:50;;;;;;;16.15;12.18;;;;;;;;;;4975581;28;20422;-71
2022/09/06 05:24:16;;;;;;;15.40;10.38;;;;;;;;;;4958120;28;20059;-70
2022/09/06 05:26:42;;;;;;;12.68;9.35;;;;;;;;;;4986358;28;20065;-70
2022/09/06 05:29:07;;;;;;;12.02;7.72;;;;;;;;;;4994992;28;20493;-70
2022/09/06 05:31:34;;;;;;;16.15;10.30;;;;;;;;;;4995315;28;20035;-71
2022/09/06 05:34:00;;;;;;;12.38;9.27;;;;;;;;;;4994951;28;20033;-71
2022/09/06 05:36:28;;;;;;;14.43;8.20;;;;;;;;;;4994377;28;20109;-70
2022/09/06 05:38:55;;;;;;;11.77;7.60;;;;;;;;;;4994872;28;20165;-69
2022/09/06 05:41:22;;;;;;;15.93;9.38;;;;;;;;;;4994950;28;20058;-70
2022/09/06 05:43:48;;;;;;;17.08;9.75;;;;;;;;;;4994938;28;20022;-70
2022/09/06 05:46:15;;;;;;;28.95;10.55;;;;;;;;;;4994235;28;20033;-69
2022/09/06 05:48:40;;;;;;;18.02;8.65;;;;;;;;;;4994524;28;20038;-70
2022/09/06 05:51:11;;;;;;;14.80;7.32;;;;;;;;;;4994379;28;20034;-71
2022/09/06 05:53:42;;;;;;;15.45;6.75;;;;;;;;;;4994977;28;20037;-72
2022/09/06 05:56:09;;;;;;;19.33;6.30;;;;;;;;;;4983387;28;20035;-71
2022/09/06 05:58:37;;;;;;;23.35;6.18;;;;;;;;;;4976109;28;20093;-70
2022/09/06 06:01:13;;;;;;;15.60;6.20;;;;;;;;;;4973830;28;20041;-70
2022/09/06 06:03:39;;;;;;;15.45;6.43;;;;;;;;;;4957486;28;20035;-74
2022/09/06 06:06:05;;;;;;;13.13;4.88;;;;;;;;;;4970083;28;20023;-72
2022/09/06 06:08:30;;;;;;;17.63;6.25;;;;;;;;;;4971165;28;20031;-72
2022/09/06 06:11:00;;;;;;;20.35;9.82;;;;;;;;;;4972818;28;20371;-72
2022/09/06 06:13:28;;;;;;;17.10;9.05;;;;;;;;;;4969868;28;20060;-72
2022/09/06 06:15:55;;;;;;;23.00;11.68;;;;;;;;;;4973194;28;20035;-72
2022/09/06 06:18:21;;;;;;;13.10;9.75;;;;;;;;;;4970844;28;20117;-71
2022/09/06 06:20:47;;;;;;;22.65;10.48;;;;;;;;;;4955815;28;20092;-72
2022/09/06 06:23:14;;;;;;;15.38;10.05;;;;;;;;;;4976143;28;20398;-73
2022/09/06 06:25:40;;;;;;;17.27;10.20;;;;;;;;;;4956382;28;20039;-72
2022/09/06 06:28:06;;;;;;;20.75;11.00;;;;;;;;;;4973608;28;20042;-71
2022/09/06 06:30:31;;;;;;;23.20;10.73;;;;;;;;;;4972738;28;20034;-72
2022/09/06 06:32:57;;;;;;;17.30;9.23;;;;;;;;;;4975887;28;20043;-70
2022/09/06 06:35:24;;;;;;;22.08;9.68;;;;;;;;;;4993243;28;20563;-71
2022/09/06 06:37:50;;;;;;;21.83;10.55;;;;;;;;;;4992203;28;20394;-73
2022/09/06 06:40:15;;;;;;;19.70;9.98;;;;;;;;;;4965812;28;20030;-73
2022/09/06 06:42:41;;;;;;;19.15;9.65;;;;;;;;;;4973627;28;20031;-76
2022/09/06 06:45:08;;;;;;;25.25;10.15;;;;;;;;;;4973381;28;20027;-73
2022/09/06 06:47:33;;;;;;;21.35;10.65;;;;;;;;;;4973007;28;20126;-74
2022/09/06 06:49:59;;;;;;;13.75;8.85;;;;;;;;;;4972591;28;20223;-76
2022/09/06 06:52:25;;;;;;;13.80;7.63;;;;;;;;;;4972853;28;20062;-74
2022/09/06 06:54:51;;;;;;;14.77;8.30;;;;;;;;;;4973429;28;20023;-74
2022/09/06 06:57:17;;;;;;;21.85;9.45;;;;;;;;;;4973178;28;20039;-75
2022/09/06 06:59:42;;;;;;;20.17;8.52;;;;;;;;;;4972969;28;20027;-74
2022/09/06 07:02:09;;;;;;;14.52;8.38;;;;;;;;;;4972948;28;20035;-73
2022/09/06 07:04:34;;;;;;;17.13;8.57;;;;;;;;;;4973438;28;20035;-74
2022/09/06 07:07:00;;;;;;;23.35;10.75;;;;;;;;;;4971088;28;20050;-74
2022/09/06 07:09:26;;;;;;;13.85;9.63;;;;;;;;;;4968622;28;20027;-73
2022/09/06 07:11:52;;;;;;;17.33;9.43;;;;;;;;;;4973221;28;20410;-77
2022/09/06 07:14:18;;;;;;;18.17;9.48;;;;;;;;;;4972650;28;20043;-72
2022/09/06 07:16:45;;;;;;;16.23;9.05;;;;;;;;;;4973067;28;20034;-72
2022/09/06 07:19:11;;;;;;;23.75;11.23;;;;;;;;;;4972602;28;20540;-72
2022/09/06 07:21:37;;;;;;;19.80;9.55;;;;;;;;;;4972669;28;20035;-71
2022/09/06 07:24:06;;;;;;;21.67;9.70;;;;;;;;;;4972159;28;20045;-71
2022/09/06 07:26:34;;;;;;;24.63;8.93;;;;;;;;;;4972409;28;20383;-68
2022/09/06 07:29:03;;;;;;;11.77;7.93;;;;;;;;;;4978222;28;20027;-72
2022/09/06 07:31:31;;;;;;;11.52;7.30;;;;;;;;;;4981077;28;20031;-69
2022/09/06 07:33:58;;;;;;;11.40;6.55;;;;;;;;;;4966821;28;20537;-71
2022/09/06 07:36:24;;;;;;;11.80;7.20;;;;;;;;;;4971274;28;20038;-71
2022/09/06 07:38:50;;;;;;;14.88;7.68;;;;;;;;;;4971475;28;20070;-71
2022/09/06 07:41:17;;;;;;;13.82;7.63;;;;;;;;;;4973631;28;20031;-70
2022/09/06 07:43:43;;;;;;;21.27;7.32;;;;;;;;;;4978139;28;20027;-72
2022/09/06 07:46:15;;;;;;;8.07;6.15;;;;;;;;;;4970684;28;20136;-70
2022/09/06 07:48:42;;;;;;;10.50;6.47;;;;;;;;;;4971427;28;20042;-72
2022/09/06 07:51:21;;;;;;;16.42;6.85;;;;;;;;;;4972145;28;20054;-70
2022/09/06 07:53:50;;;;;;;12.10;4.90;;;;;;;;;;4986164;28;20034;-73
2022/09/06 07:56:17;;;;;;;10.68;4.13;;;;;;;;;;4971318;28;20110;-73
2022/09/06 07:58:42;;;;;;;7.72;4.13;;;;;;;;;;4971309;28;20039;-71
2022/09/06 08:01:29;;;;;;;8.02;3.20;;;;;;;;;;4973658;28;20019;-75
2022/09/06 08:04:01;;;;;;;11.02;3.90;;;;;;;;;;4974250;28;20048;-74
2022/09/06 08:06:30;;;;;;;6.63;3.70;;;;;;;;;;4971229;28;20509;-71
2022/09/06 08:08:56;;;;;;;15.10;3.78;;;;;;;;;;4974201;28;20146;-73
2022/09/06 08:11:25;;;;;;;8.15;3.75;;;;;;;;;;4975157;28;20438;-73
2022/09/06 08:13:55;;;;;;;5.82;4.15;;;;;;;;;;4975778;28;20073;-70
2022/09/06 08:16:22;;;;;;;9.23;4.40;;;;;;;;;;4975895;28;20581;-72
2022/09/06 08:18:53;;;;;;;8.73;3.65;;;;;;;;;;4975635;28;20030;-72
2022/09/06 08:21:22;;;;;;;7.43;3.95;;;;;;;;;;4975264;28;20093;-75
2022/09/06 08:23:53;;;;;;;9.93;4.18;;;;;;;;;;4974836;28;20023;-73
2022/09/06 08:26:21;;;;;;;9.10;3.67;;;;;;;;;;4975414;28;20034;-71
2022/09/06 08:28:47;;;;;;;9.57;3.70;;;;;;;;;;4975076;28;20058;-73
2022/09/06 08:31:16;;;;;;;7.75;3.38;;;;;;;;;;4973884;28;20034;-73
2022/09/06 08:33:43;;;;;;;7.55;2.80;;;;;;;;;;4973330;28;20495;-73
2022/09/06 08:36:09;;;;;;;8.98;3.10;;;;;;;;;;4973029;28;20195;-74
2022/09/06 08:38:36;;;;;;;5.65;2.80;;;;;;;;;;4973357;28;20063;-70
2022/09/06 08:41:10;;;;;;;5.25;2.20;;;;;;;;;;4975437;28;20122;-75
2022/09/06 08:43:37;;;;;;;8.85;2.67;;;;;;;;;;4975787;28;20631;-74
2022/09/06 08:46:05;;;;;;;8.57;2.40;;;;;;;;;;4975978;28;20027;-74
2022/09/06 08:48:35;;;;;;;6.55;2.97;;;;;;;;;;4975519;28;20135;-72
2022/09/06 08:51:22;;;;;;;4.97;2.33;;;;;;;;;;4975689;28;20053;-66
2022/09/06 08:53:47;;;;;;;6.97;2.33;;;;;;;;;;4975266;28;20035;-75
2022/09/06 08:56:22;;;;;;;6.28;2.35;;;;;;;;;;4975811;28;20081;-70
2022/09/06 08:59:06;;;;;;;6.18;2.30;;;;;;;;;;4974794;28;20371;-74
2022/09/06 09:01:48;;;;;;;7.45;2.83;;;;;;;;;;4975341;28;20038;-74
2022/09/06 09:04:22;;;;;;;10.85;2.97;;;;;;;;;;4975400;28;20442;-72
2022/09/06 09:06:55;;;;;;;4.03;2.00;;;;;;;;;;4975484;28;20031;-72
2022/09/06 09:09:20;;;;;;;;;;;;;;;;;;4975667;28;20042;-68
2022/09/06 09:11:49;;;;;;;5.32;1.98;;;;;;;;;;4973336;28;19918;-68
2022/09/06 09:14:25;;;;;;;4.93;2.30;;;;;;;;;;4974383;28;20050;-69
2022/09/06 09:17:11;;;;;;;5.50;2.63;;;;;;;;;;4974687;28;20045;-67
2022/09/06 09:19:40;;;;;;;6.00;2.10;;;;;;;;;;4975074;28;20390;-73
2022/09/06 09:22:06;;;;;;;5.38;2.45;;;;;;;;;;4975092;28;20074;-68
2022/09/06 09:24:32;;;;;;;6.60;2.30;;;;;;;;;;4970357;28;20054;-69
2022/09/06 09:27:03;;;;;;;8.32;2.58;;;;;;;;;;4974203;28;20031;-70
2022/09/06 09:29:29;;;;;;;6.55;2.40;;;;;;;;;;4939261;28;20078;-68
2022/09/06 09:31:55;;;;;;;5.30;2.42;;;;;;;;;;4944111;28;20051;-69
2022/09/06 09:34:38;;;;;;;7.40;2.03;;;;;;;;;;4946106;28;20069;-69
2022/09/06 09:37:21;;;;;;;;;;;;;;;;;;4945978;28;20054;-67
2022/09/06 09:39:48;;;;;;;3.00;1.92;;;;;;;;;;4952951;28;20005;-69
2022/09/06 09:42:35;;;;;;;2.75;1.65;;;;;;;;;;4954699;28;20371;-68
2022/09/06 09:45:06;;;;;;;5.57;2.13;;;;;;;;;;4952119;28;20031;-67
2022/09/06 09:47:33;;;;;;;7.63;2.08;;;;;;;;;;4953867;28;20055;-68
2022/09/06 09:49:59;;;;;;;7.15;2.50;;;;;;;;;;4955026;29;20028;-69
2022/09/06 09:52:28;;;;;;;5.90;2.33;;;;;;;;;;4954380;29;20491;-69
2022/09/06 09:55:00;;;;;;;3.67;2.28;;;;;;;;;;4954304;28;20107;-73
2022/09/06 09:57:28;;;;;;;;;;;;;;;;;;4955402;28;20070;-74
2022/09/06 10:00:01;;;;;;;3.53;2.10;;;;;;;;;;4954751;28;19915;-74
2022/09/06 10:02:37;;;;;;;5.90;2.38;;;;;;;;;;4937392;29;20375;-73
2022/09/06 10:05:13;;;;;;;4.25;1.90;;;;;;;;;;4954783;28;20034;-70
2022/09/06 10:07:50;;;;;;;4.75;2.00;;;;;;;;;;4954910;28;20036;-68
2022/09/06 10:10:23;;;;;;;4.72;2.05;;;;;;;;;;4954195;28;20728;-71
2022/09/06 10:13:18;;;;;;;5.93;3.00;;;;;;;;;;4954851;28;20855;-67
2022/09/06 10:15:44;;;;;;;4.63;2.28;;;;;;;;;;4954176;28;20463;-72
2022/09/06 10:18:19;;;;;;;5.75;2.10;;;;;;;;;;4954962;28;20019;-73
2022/09/06 10:20:54;;;;;;;5.55;2.80;;;;;;;;;;4953831;29;20066;-73
2022/09/06 10:23:44;;;;;;;7.40;3.03;;;;;;;;;;4953643;28;20457;-71
2022/09/06 10:26:15;;;;;;;5.78;3.70;;;;;;;;;;4946558;29;20106;-71
2022/09/06 10:28:42;;;;;;;4.68;2.33;;;;;;;;;;4954212;29;20134;-71
2022/09/06 10:31:42;;;;;;;3.03;2.03;;;;;;;;;;4952926;29;20027;-71
2022/09/06 10:34:35;;;;;;;4.43;2.17;;;;;;;;;;4934872;29;20075;-70
2022/09/06 10:37:39;;;;;;;7.15;2.60;;;;;;;;;;4935156;29;20110;-72
2022/09/06 10:40:11;;;;;;;6.55;2.30;;;;;;;;;;4915388;29;20427;-68
2022/09/06 10:42:51;;;;;;;4.05;2.17;;;;;;;;;;4934656;29;20031;-73
2022/09/06 10:45:57;;;;;;;4.63;2.47;;;;;;;;;;4933862;29;20063;-70
2022/09/06 10:48:38;;;;;;;3.72;2.30;;;;;;;;;;4913153;29;20179;-71
2022/09/06 10:51:30;;;;;;;5.43;2.40;;;;;;;;;;4934682;29;20115;-69
2022/09/06 10:54:09;;;;;;;3.92;2.45;;;;;;;;;;4952274;28;20082;-69
2022/09/06 10:56:42;;;;;;;5.45;2.28;;;;;;;;;;4950759;28;20035;-69
2022/09/06 10:59:26;;;;;;;3.65;2.00;;;;;;;;;;4966822;28;20085;-68
2022/09/06 11:02:02;;;;;;;4.90;2.45;;;;;;;;;;4971701;28;20054;-69
2022/09/06 11:04:39;;;;;;;6.80;2.70;;;;;;;;;;4972413;28;20034;-69
2022/09/06 11:07:29;;;;;;;4.90;2.53;;;;;;;;;;4971562;28;20504;-66
2022/09/06 11:10:24;;;;;;;5.78;2.38;;;;;;;;;;4919219;28;20058;-68
2022/09/06 11:13:16;;;;;;;5.30;2.70;;;;;;;;;;4963947;28;20039;-68
2022/09/06 11:16:01;;;;;;;4.72;2.42;;;;;;;;;;4950385;28;20360;-68
2022/09/06 11:18:38;;;;;;;4.82;2.40;;;;;;;;;;4953170;28;20046;-69
2022/09/06 11:21:23;;;;;;;4.80;2.55;;;;;;;;;;4953327;28;20486;-69
2022/09/06 11:24:10;;;;;;;3.53;2.13;;;;;;;;;;4953157;28;20141;-69
2022/09/06 11:26:56;;;;;;;3.10;2.00;;;;;;;;;;4953400;28;20475;-70
2022/09/06 11:29:25;;;;;;;5.35;2.38;;;;;;;;;;4921972;28;20200;-68
2022/09/06 11:32:49;;;;;;;4.10;2.15;;;;;;;;;;4934543;28;20434;-69
2022/09/06 11:35:23;;;;;;;5.68;2.58;;;;;;;;;;4882439;29;20119;-71
2022/09/06 11:37:58;;;;;;;5.90;2.70;;;;;;;;;;4915060;29;20040;-71
2022/09/06 11:40:37;;;;;;;6.95;2.60;;;;;;;;;;4932066;29;20066;-71
2022/09/06 11:43:03;;;;;;;2.97;1.90;;;;;;;;;;4933387;29;20043;-70
2022/09/06 11:45:50;;;;;;;8.45;2.60;;;;;;;;;;4933929;29;20039;-70
2022/09/06 11:48:22;;;;;;;3.78;2.10;;;;;;;;;;4934362;29;20043;-70
2022/09/06 11:50:57;;;;;;;5.65;2.92;;;;;;;;;;4934799;29;20040;-70
2022/09/06 11:53:25;;;;;;;4.63;2.30;;;;;;;;;;4934564;29;20038;-69
2022/09/06 11:56:11;;;;;;;8.90;3.15;;;;;;;;;;4933664;29;20040;-68
2022/09/06 11:58:52;;;;;;;4.07;2.53;;;;;;;;;;4935107;29;20395;-69
2022/09/06 12:01:19;;;;;;;3.40;2.20;;;;;;;;;;4917393;29;20039;-71
2022/09/06 12:03:45;;;;;;;5.68;2.50;;;;;;;;;;4934635;29;20471;-69
2022/09/06 12:06:18;;;;;;;5.70;3.63;;;;;;;;;;4932893;28;20040;-70
2022/09/06 12:08:45;;;;;;;5.35;2.40;;;;;;;;;;4933348;29;20107;-69
2022/09/06 12:11:42;;;;;;;7.75;2.58;;;;;;;;;;4940829;29;20055;-71
2022/09/06 12:14:39;;;;;;;5.03;2.50;;;;;;;;;;4948367;29;20367;-71
2022/09/06 12:17:06;;;;;;;5.15;2.10;;;;;;;;;;4931271;29;20071;-69
2022/09/06 12:19:50;;;;;;;2.55;1.90;;;;;;;;;;4933978;29;20027;-69
2022/09/06 12:22:25;;;;;;;4.03;2.47;;;;;;;;;;4934489;29;20039;-71
2022/09/06 12:24:58;;;;;;;5.50;2.38;;;;;;;;;;4934076;29;20036;-71
2022/09/06 12:27:30;;;;;;;4.25;2.40;;;;;;;;;;4934029;29;20063;-74
2022/09/06 12:29:59;;;;;;;5.28;2.60;;;;;;;;;;4941784;28;20475;-69
2022/09/06 12:32:48;;;;;;;4.15;2.40;;;;;;;;;;4956914;28;20031;-71
2022/09/06 12:35:27;;;;;;;3.28;2.20;;;;;;;;;;4953238;28;20398;-70
2022/09/06 12:37:56;;;;;;;4.25;2.70;;;;;;;;;;4952576;28;20683;-70
2022/09/06 12:40:24;;;;;;;4.57;2.72;;;;;;;;;;4951951;28;20474;-71
2022/09/06 12:42:53;;;;;;;6.03;3.03;;;;;;;;;;4952851;28;20400;-72
2022/09/06 12:45:21;;;;;;;5.63;3.60;;;;;;;;;;4950654;28;20075;-70
2022/09/06 12:47:48;;;;;;;5.90;2.80;;;;;;;;;;4956275;28;20035;-71
2022/09/06 12:50:18;;;;;;;4.55;2.90;;;;;;;;;;4956290;28;20387;-69
2022/09/06 12:52:55;;;;;;;3.65;2.85;;;;;;;;;;4955689;28;20036;-72
2022/09/06 12:55:26;;;;;;;5.82;3.00;;;;;;;;;;4956391;28;20042;-71
2022/09/06 12:57:55;;;;;;;4.00;2.70;;;;;;;;;;4957317;28;20118;-70
2022/09/06 13:00:22;;;;;;;4.75;2.70;;;;;;;;;;4954854;28;20469;-71
2022/09/06 13:02:55;;;;;;;4.78;3.17;;;;;;;;;;4938817;29;20066;-70
2022/09/06 13:05:21;;;;;;;5.13;3.17;;;;;;;;;;4958648;28;20028;-70
2022/09/06 13:07:57;;;;;;;4.72;2.90;;;;;;;;;;4939547;28;20031;-70
2022/09/06 13:10:25;;;;;;;6.55;2.92;;;;;;;;;;4957061;28;20046;-70
2022/09/06 13:12:53;;;;;;;3.38;2.75;;;;;;;;;;4956814;28;20027;-71
2022/09/06 13:15:27;;;;;;;3.83;2.88;;;;;;;;;;4956978;28;20039;-69
2022/09/06 13:18:26;;;;;;;5.75;2.72;;;;;;;;;;4957042;28;20066;-70
2022/09/06 13:20:59;;;;;;;4.45;2.95;;;;;;;;;;4939934;29;20032;-70
2022/09/06 13:23:25;;;;;;;3.38;2.38;;;;;;;;;;4957059;28;20048;-68
2022/09/06 13:25:53;;;;;;;3.13;2.55;;;;;;;;;;4955590;28;20023;-69
2022/09/06 13:28:31;;;;;;;4.85;2.50;;;;;;;;;;4956576;28;20463;-71
2022/09/06 13:31:11;;;;;;;3.10;2.25;;;;;;;;;;4939258;28;20046;-69
2022/09/06 13:33:39;;;;;;;5.18;2.63;;;;;;;;;;4956843;28;20090;-69
2022/09/06 13:36:19;;;;;;;4.38;3.60;;;;;;;;;;4957079;28;20035;-70
2022/09/06 13:38:45;;;;;;;3.22;2.33;;;;;;;;;;4956361;28;20062;-69
2022/09/06 13:41:40;;;;;;;3.15;2.50;;;;;;;;;;4956713;28;20051;-69
2022/09/06 13:44:15;;;;;;;6.18;2.88;;;;;;;;;;4944336;29;20082;-70
2022/09/06 13:46:41;;;;;;;5.70;2.78;;;;;;;;;;4956648;28;20039;-70
2022/09/06 13:49:07;;;;;;;3.10;2.72;;;;;;;;;;4956649;28;20031;-70
2022/09/06 13:51:34;;;;;;;4.10;2.50;;;;;;;;;;4956041;28;20031;-70
2022/09/06 13:54:09;;;;;;;3.03;2.50;;;;;;;;;;4956927;28;20027;-73
2022/09/06 13:56:35;;;;;;;4.20;2.60;;;;;;;;;;4956332;28;20054;-75
2022/09/06 13:59:02;;;;;;;3.38;2.42;;;;;;;;;;4955478;28;20115;-71
2022/09/06 14:01:28;;;;;;;5.03;2.60;;;;;;;;;;4938917;29;20066;-72
2022/09/06 14:03:54;;;;;;;4.15;2.40;;;;;;;;;;4956360;29;20058;-72
2022/09/06 14:06:21;;;;;;;4.97;2.22;;;;;;;;;;4956381;29;20086;-70
2022/09/06 14:08:47;;;;;;;3.95;2.30;;;;;;;;;;4955814;28;20063;-69
2022/09/06 14:11:13;;;;;;;3.63;2.78;;;;;;;;;;4954544;29;20069;-70
2022/09/06 14:13:38;;;;;;;4.68;2.50;;;;;;;;;;4956021;28;20054;-71
2022/09/06 14:16:05;;;;;;;3.72;2.60;;;;;;;;;;4956066;28;20035;-71
2022/09/06 14:18:31;;;;;;;3.85;2.50;;;;;;;;;;4955993;28;20039;-69
2022/09/06 14:20:57;;;;;;;3.72;2.75;;;;;;;;;;4956177;28;20032;-70
2022/09/06 14:23:25;;;;;;;6.35;3.10;;;;;;;;;;4941279;28;20030;-71
2022/09/06 14:25:55;;;;;;;4.32;2.70;;;;;;;;;;4974952;28;20343;-68
2022/09/06 14:28:21;;;;;;;3.30;2.70;;;;;;;;;;4974458;28;20039;-67
2022/09/06 14:30:47;;;;;;;4.20;3.28;;;;;;;;;;4974608;28;20487;-70
2022/09/06 14:33:13;;;;;;;3.85;2.65;;;;;;;;;;4974586;28;20062;-70
2022/09/06 14:35:40;;;;;;;3.65;2.85;;;;;;;;;;4974568;28;20392;-67
2022/09/06 14:38:06;;;;;;;3.13;2.47;;;;;;;;;;4956981;28;20058;-71
2022/09/06 14:40:37;;;;;;;3.20;2.70;;;;;;;;;;4948037;28;20015;-68
2022/09/06 14:43:03;;;;;;;6.07;3.17;;;;;;;;;;4919557;29;20032;-67
2022/09/06 14:45:31;;;;;;;3.35;2.60;;;;;;;;;;4935930;29;20024;-68
2022/09/06 14:47:57;;;;;;;4.60;2.70;;;;;;;;;;4936048;29;20059;-69
2022/09/06 14:50:30;;;;;;;7.70;2.50;;;;;;;;;;4918883;29;20031;-67
2022/09/06 14:53:02;;;;;;;4.03;2.67;;;;;;;;;;4918318;29;20039;-67
2022/09/06 14:55:32;;;;;;;4.22;2.58;;;;;;;;;;4949338;28;20039;-69
2022/09/06 14:58:00;;;;;;;3.78;2.60;;;;;;;;;;4950141;28;20039;-68